createdAt,value
2022-12-03T00:00:35.992Z,8.77
2022-12-03T00:03:03.146Z,8.70
2022-12-03T00:05:34.458Z,8.73
2022-12-03T00:08:01.661Z,8.86
2022-12-03T00:10:30.732Z,8.65
2022-12-03T00:15:51.302Z,8.93
2022-12-03T00:18:20.123Z,8.85
2022-12-03T00:20:46.923Z,8.98
2022-12-03T00:23:14.650Z,8.90
2022-12-03T00:25:41.690Z,9.09
2022-12-03T00:28:09.320Z,8.55
2022-12-03T00:33:27.020Z,8.91
2022-12-03T00:39:12.586Z,8.82
2022-12-03T00:41:39.735Z,8.63
2022-12-03T00:44:06.908Z,8.76
2022-12-03T00:46:36.240Z,9.01
2022-12-03T00:49:07.431Z,9.07
2022-12-03T00:51:40.102Z,9.03
2022-12-03T00:56:57.566Z,8.48
2022-12-03T00:59:37.094Z,8.70
2022-12-03T01:02:05.936Z,8.52
2022-12-03T01:04:35.526Z,8.76
2022-12-03T01:07:04.802Z,8.24
2022-12-03T01:12:18.937Z,8.41
2022-12-03T01:14:49.760Z,8.65
2022-12-03T01:20:12.675Z,7.85
2022-12-03T01:22:40.636Z,8.27
2022-12-03T01:25:08.169Z,7.32
2022-12-03T01:28:12.227Z,7.65
2022-12-03T01:30:45.039Z,7.21
2022-12-03T01:33:13.266Z,5.98
2022-12-03T01:38:26.587Z,4.92
2022-12-03T01:44:12.848Z,4.71
2022-12-03T01:46:40.670Z,4.73
2022-12-03T01:49:10.726Z,4.78
2022-12-03T01:51:42.693Z,4.97
2022-12-03T01:54:35.534Z,5.07
2022-12-03T01:57:04.806Z,4.99
2022-12-03T01:59:33.853Z,4.78
2022-12-03T02:02:09.112Z,5.32
2022-12-03T02:13:18.024Z,4.69
2022-12-03T02:16:00.689Z,4.48
2022-12-03T02:24:15.973Z,3.94
2022-12-03T02:26:51.649Z,4.49
2022-12-03T02:29:28.318Z,4.62
2022-12-03T02:35:19.349Z,4.09
2022-12-03T02:37:50.606Z,4.72
2022-12-03T02:40:20.126Z,4.37
2022-12-03T02:45:31.614Z,4.13
2022-12-03T02:48:13.318Z,4.58
2022-12-03T02:53:30.828Z,4.17
2022-12-03T03:05:24.879Z,2.81
2022-12-03T03:07:56.328Z,3.13
2022-12-03T03:10:26.130Z,3.20
2022-12-03T03:13:00.987Z,3.17
2022-12-03T03:15:35.215Z,3.07
2022-12-03T03:18:09.389Z,3.00
2022-12-03T03:20:36.439Z,3.02
2022-12-03T03:23:03.999Z,2.72
2022-12-03T03:25:32.724Z,2.75
2022-12-03T03:28:01.817Z,2.88
2022-12-03T03:30:30.834Z,2.76
2022-12-03T03:33:05.130Z,2.61
2022-12-03T03:35:32.232Z,2.72
2022-12-03T03:37:59.645Z,2.73
2022-12-03T03:40:26.683Z,2.75
2022-12-03T03:42:53.591Z,2.81
2022-12-03T03:45:24.094Z,2.90
2022-12-03T03:47:59.403Z,2.70
2022-12-03T03:50:26.728Z,2.80
2022-12-03T03:53:01.776Z,2.75
2022-12-03T03:55:32.441Z,2.71
2022-12-03T03:58:03.381Z,2.56
2022-12-03T04:00:34.667Z,2.82
2022-12-03T04:03:06.875Z,2.49
2022-12-03T04:05:34.732Z,2.64
2022-12-03T04:08:01.786Z,2.85
2022-12-03T04:10:28.925Z,2.94
2022-12-03T04:13:18.847Z,3.17
2022-12-03T04:16:14.281Z,2.92
2022-12-03T04:18:42.152Z,3.19
2022-12-03T04:21:09.468Z,3.35
2022-12-03T04:23:40.088Z,2.83
2022-12-03T04:26:09.014Z,2.98
2022-12-03T04:28:42.443Z,3.40
2022-12-03T04:31:13.295Z,3.51
2022-12-03T04:33:40.370Z,4.18
2022-12-03T04:36:09.320Z,4.59
2022-12-03T04:38:36.294Z,5.26
2022-12-03T04:41:04.230Z,6.12
2022-12-03T04:43:31.311Z,6.36
2022-12-03T04:45:58.933Z,5.37
2022-12-03T04:48:26.668Z,4.90
2022-12-03T04:50:53.936Z,4.71
2022-12-03T04:53:23.846Z,4.53
2022-12-03T04:55:52.017Z,4.28
2022-12-03T04:58:19.314Z,4.95
2022-12-03T05:00:50.261Z,4.30
2022-12-03T05:05:52.869Z,5.73
2022-12-03T05:08:20.340Z,6.11
2022-12-03T05:10:48.485Z,6.45
2022-12-03T05:13:15.778Z,6.28
2022-12-03T05:15:42.694Z,4.96
2022-12-03T05:18:14.836Z,4.96
2022-12-03T05:20:45.695Z,6.19
2022-12-03T05:23:19.719Z,6.38
2022-12-03T05:25:48.593Z,6.95
2022-12-03T05:28:18.737Z,6.91
2022-12-03T05:30:46.338Z,7.08
2022-12-03T05:33:14.039Z,7.01
2022-12-03T05:35:45.273Z,7.29
2022-12-03T05:38:12.568Z,7.32
2022-12-03T05:40:42.859Z,7.54
2022-12-03T05:43:11.541Z,7.15
2022-12-03T05:45:42.070Z,7.40
2022-12-03T05:48:13.251Z,6.99
2022-12-03T05:50:42.501Z,7.32
2022-12-03T05:53:11.102Z,6.32
2022-12-03T05:55:41.347Z,7.13
2022-12-03T05:58:08.587Z,7.24
2022-12-03T06:00:42.387Z,5.49
2022-12-03T06:03:10.944Z,5.39
2022-12-03T06:05:38.715Z,5.89
2022-12-03T06:08:08.232Z,6.83
2022-12-03T06:10:36.092Z,7.12
2022-12-03T06:13:02.760Z,7.30
2022-12-03T06:15:30.471Z,7.45
2022-12-03T06:18:02.845Z,7.66
2022-12-03T06:20:36.947Z,7.68
2022-12-03T06:23:07.898Z,7.83
2022-12-03T06:25:40.772Z,7.80
2022-12-03T06:28:09.854Z,7.85
2022-12-03T06:30:41.767Z,7.51
2022-12-03T06:33:09.852Z,6.66
2022-12-03T06:35:37.217Z,6.66
2022-12-03T06:38:04.695Z,6.98
2022-12-03T06:40:36.045Z,6.34
2022-12-03T06:43:03.048Z,6.94
2022-12-03T06:45:30.156Z,6.21
2022-12-03T06:48:01.625Z,6.19
2022-12-03T06:53:10.906Z,7.04
2022-12-03T06:55:37.995Z,6.86
2022-12-03T06:58:04.820Z,6.91
2022-12-03T07:00:31.885Z,6.86
2022-12-03T07:02:58.786Z,7.34
2022-12-03T07:05:26.828Z,7.67
2022-12-03T07:07:54.421Z,7.66
2022-12-03T07:10:21.181Z,6.48
2022-12-03T07:12:48.751Z,7.07
2022-12-03T07:15:16.318Z,6.69
2022-12-03T07:17:47.636Z,6.13
2022-12-03T07:20:25.753Z,6.01
2022-12-03T07:22:55.805Z,5.58
2022-12-03T07:25:24.643Z,5.48
2022-12-03T07:27:55.622Z,6.27
2022-12-03T07:30:29.433Z,7.06
2022-12-03T07:33:07.635Z,7.47
2022-12-03T07:35:41.429Z,7.92
2022-12-03T07:38:09.429Z,7.15
2022-12-03T07:40:36.627Z,7.42
2022-12-03T07:45:59.210Z,7.55
2022-12-03T07:54:18.839Z,8.14
2022-12-03T07:56:46.023Z,8.44
2022-12-03T07:59:12.912Z,8.54
2022-12-03T08:01:46.933Z,7.63
2022-12-03T08:04:14.709Z,6.32
2022-12-03T08:06:41.630Z,6.13
2022-12-03T08:09:13.164Z,7.07
2022-12-03T08:11:44.947Z,7.69
2022-12-03T08:14:12.152Z,7.28
2022-12-03T08:16:40.014Z,7.39
2022-12-03T08:19:08.796Z,8.01
2022-12-03T08:21:40.058Z,8.44
2022-12-03T08:24:07.477Z,8.86
2022-12-03T08:26:44.379Z,9.10
2022-12-03T08:29:13.962Z,9.20
2022-12-03T08:31:42.550Z,9.40
2022-12-03T08:34:10.078Z,9.53
2022-12-03T08:36:49.696Z,9.54
2022-12-03T08:39:17.803Z,9.25
2022-12-03T08:41:44.731Z,8.32
2022-12-03T08:44:15.356Z,8.62
2022-12-03T08:46:43.146Z,8.46
2022-12-03T08:49:09.883Z,8.50
2022-12-03T08:51:44.142Z,9.23
2022-12-03T08:54:11.193Z,7.30
2022-12-03T08:56:40.099Z,7.08
2022-12-03T08:59:12.148Z,6.20
2022-12-03T09:01:45.625Z,5.48
2022-12-03T09:04:13.506Z,5.78
2022-12-03T09:06:41.710Z,6.04
2022-12-03T09:09:08.723Z,7.01
2022-12-03T09:11:37.526Z,7.97
2022-12-03T09:14:04.781Z,7.90
2022-12-03T09:19:22.413Z,6.50
2022-12-03T09:21:50.301Z,5.97
2022-12-03T09:24:21.540Z,6.75
2022-12-03T09:26:50.620Z,6.72
2022-12-03T09:29:20.325Z,7.51
2022-12-03T09:31:52.135Z,7.28
2022-12-03T09:36:48.007Z,9.01
2022-12-03T09:39:14.934Z,8.77
2022-12-03T09:41:45.020Z,8.38
2022-12-03T09:44:17.455Z,8.48
2022-12-03T09:46:46.534Z,8.58
2022-12-03T09:52:31.263Z,9.08
2022-12-03T09:57:40.689Z,9.62
2022-12-03T10:03:29.912Z,9.09
2022-12-03T10:05:59.008Z,8.91
2022-12-03T10:08:32.484Z,8.46
2022-12-03T10:14:03.816Z,7.32
2022-12-03T10:16:35.447Z,7.11
2022-12-03T10:19:07.687Z,6.33
2022-12-03T10:21:41.878Z,5.99
2022-12-03T10:26:57.117Z,6.03
2022-12-03T10:29:33.227Z,6.32
2022-12-03T10:32:05.075Z,6.43
2022-12-03T10:34:33.005Z,6.69
2022-12-03T10:37:04.121Z,6.46
2022-12-03T10:39:33.448Z,5.95
2022-12-03T10:42:02.835Z,5.27
2022-12-03T10:44:31.990Z,5.54
2022-12-03T10:47:00.747Z,6.26
2022-12-03T10:49:29.358Z,6.69
2022-12-03T10:51:56.977Z,7.60
2022-12-03T10:54:25.539Z,7.81
2022-12-03T11:02:56.710Z,6.83
2022-12-03T11:08:37.576Z,6.93
2022-12-03T11:11:04.803Z,7.09
2022-12-03T11:13:33.853Z,6.47
2022-12-03T11:16:00.932Z,7.16
2022-12-03T11:18:27.727Z,7.70
2022-12-03T11:23:47.156Z,7.38
2022-12-03T11:29:24.356Z,6.54
2022-12-03T11:31:55.260Z,6.60
2022-12-03T11:34:23.360Z,6.39
2022-12-03T11:37:01.562Z,6.25
2022-12-03T11:39:31.002Z,6.42
2022-12-03T11:41:58.710Z,7.51
2022-12-03T11:44:27.738Z,7.23
2022-12-03T11:46:55.885Z,6.52
2022-12-03T11:50:00.022Z,6.08
2022-12-03T11:52:25.836Z,7.44
2022-12-03T11:54:52.933Z,8.09
2022-12-03T11:57:20.838Z,7.92
2022-12-03T12:00:01.638Z,7.27
2022-12-03T12:02:32.773Z,6.34
2022-12-03T12:05:00.485Z,6.20
2022-12-03T12:10:23.206Z,6.21
2022-12-03T12:12:55.217Z,6.78
2022-12-03T12:18:06.262Z,6.77
2022-12-03T12:20:36.302Z,6.93
2022-12-03T12:23:07.478Z,6.73
2022-12-03T12:28:55.134Z,6.02
2022-12-03T12:31:22.601Z,6.83
2022-12-03T12:33:51.554Z,7.00
2022-12-03T12:36:22.515Z,7.62
2022-12-03T12:38:53.501Z,8.25
2022-12-03T12:41:23.652Z,7.15
2022-12-03T12:43:51.059Z,6.91
2022-12-03T12:49:19.093Z,5.99
2022-12-03T12:57:13.729Z,6.15
2022-12-03T12:59:45.756Z,5.41
2022-12-03T13:02:13.342Z,5.22
2022-12-03T13:04:42.106Z,5.46
2022-12-03T13:07:18.174Z,5.42
2022-12-03T13:09:55.059Z,5.50
2022-12-03T13:12:24.113Z,5.63
2022-12-03T13:14:55.129Z,6.50
2022-12-03T13:17:30.954Z,6.54
2022-12-03T13:20:05.566Z,5.96
2022-12-03T13:22:34.722Z,5.71
2022-12-03T13:25:02.823Z,5.33
2022-12-03T13:30:11.876Z,6.01
2022-12-03T13:35:19.498Z,5.32
2022-12-03T13:37:46.626Z,5.16
2022-12-03T13:40:15.779Z,4.89
2022-12-03T13:42:43.933Z,4.71
2022-12-03T13:47:55.792Z,4.25
2022-12-03T13:50:26.850Z,3.88
2022-12-03T13:52:54.336Z,3.88
2022-12-03T13:55:27.272Z,3.89
2022-12-03T13:57:58.486Z,3.99
2022-12-03T14:00:27.313Z,4.16
2022-12-03T14:02:56.244Z,3.87
2022-12-03T14:05:23.017Z,3.44
2022-12-03T14:07:54.326Z,3.43
2022-12-03T14:10:22.187Z,3.34
2022-12-03T14:12:53.973Z,3.57
2022-12-03T14:15:20.855Z,3.57
2022-12-03T14:17:48.010Z,3.59
2022-12-03T14:20:14.952Z,3.48
2022-12-03T14:22:43.692Z,3.47
2022-12-03T14:25:12.197Z,3.52
2022-12-03T14:27:39.409Z,3.39
2022-12-03T14:30:07.776Z,3.71
2022-12-03T14:32:35.179Z,3.43
2022-12-03T14:35:09.670Z,3.45
2022-12-03T14:40:22.024Z,3.31
2022-12-03T14:42:49.686Z,3.53
2022-12-03T14:45:18.973Z,3.43
2022-12-03T14:47:52.074Z,3.47
2022-12-03T14:53:08.974Z,3.29
2022-12-03T14:55:36.209Z,3.84
2022-12-03T15:09:14.075Z,3.61
2022-12-03T15:14:30.537Z,3.37
2022-12-03T15:16:58.065Z,3.49
2022-12-03T15:19:29.490Z,3.42
2022-12-03T15:21:56.540Z,3.29
2022-12-03T15:24:28.935Z,3.38
2022-12-03T15:29:41.441Z,3.27
2022-12-03T15:34:55.115Z,3.35
2022-12-03T15:37:24.072Z,3.32
2022-12-03T15:39:58.479Z,3.34
2022-12-03T15:42:26.051Z,3.15
2022-12-03T15:45:11.944Z,3.04
2022-12-03T15:47:42.387Z,3.30
2022-12-03T15:50:25.253Z,3.43
2022-12-03T15:52:53.135Z,3.16
2022-12-03T15:55:25.021Z,3.15
2022-12-03T15:57:53.562Z,2.95
2022-12-03T16:20:24.138Z,3.11
2022-12-03T16:22:55.176Z,3.19
2022-12-03T16:25:23.745Z,3.31
2022-12-03T16:27:53.045Z,3.34
2022-12-03T16:30:23.621Z,3.17
2022-12-03T16:32:56.375Z,3.26
2022-12-03T16:35:25.739Z,3.26
2022-12-03T16:37:54.995Z,3.40
2022-12-03T16:40:24.985Z,3.42
2022-12-03T16:42:54.147Z,3.32
2022-12-03T16:45:25.293Z,3.24
2022-12-03T16:47:54.188Z,3.25
2022-12-03T16:53:03.658Z,2.92
2022-12-03T16:55:32.143Z,2.68
2022-12-03T16:58:00.156Z,2.66
2022-12-03T17:00:28.989Z,2.47
2022-12-03T17:41:03.298Z,3.86
2022-12-03T18:14:43.076Z,3.12
2022-12-03T18:17:14.915Z,2.92
2022-12-03T18:19:42.116Z,2.89
2022-12-03T18:22:09.904Z,2.70
2022-12-03T18:24:39.207Z,2.99
2022-12-03T18:27:06.338Z,2.98
2022-12-03T18:29:34.410Z,3.06
2022-12-03T18:32:01.428Z,2.94
2022-12-03T18:34:31.582Z,2.90
2022-12-03T18:37:00.116Z,2.95
2022-12-03T18:39:27.240Z,3.09
2022-12-03T18:41:54.322Z,3.17
2022-12-03T18:44:22.928Z,3.25
2022-12-03T18:46:54.239Z,3.65
2022-12-03T18:49:21.888Z,3.70
2022-12-03T18:51:53.272Z,4.06
2022-12-03T18:54:24.140Z,3.76
2022-12-03T18:56:52.889Z,3.30
2022-12-03T18:59:19.828Z,3.33
2022-12-03T19:01:46.488Z,3.38
2022-12-03T19:04:13.315Z,3.54
2022-12-03T19:06:42.045Z,3.37
2022-12-03T19:09:11.262Z,3.42
2022-12-03T19:11:37.976Z,3.09
2022-12-03T19:14:05.667Z,3.32
2022-12-03T19:16:33.687Z,3.38
2022-12-03T19:19:03.437Z,3.32
2022-12-03T19:21:34.052Z,3.45
2022-12-03T19:24:23.693Z,2.92
2022-12-03T19:26:48.809Z,2.91
2022-12-03T19:29:15.796Z,3.22
2022-12-03T19:31:46.381Z,2.95
2022-12-03T19:34:14.228Z,3.05
2022-12-03T19:36:41.253Z,3.19
2022-12-03T19:39:10.425Z,3.30
2022-12-03T19:41:38.066Z,3.22
2022-12-03T19:44:10.892Z,3.06
2022-12-03T19:46:40.120Z,2.78
2022-12-03T19:49:12.139Z,3.20
2022-12-03T19:51:39.026Z,3.70
2022-12-03T19:54:06.400Z,3.90
2022-12-03T19:56:33.311Z,3.96
2022-12-03T19:59:23.885Z,3.98
2022-12-03T20:02:08.176Z,3.73
2022-12-03T20:04:36.876Z,3.35
2022-12-03T20:07:03.921Z,3.48
2022-12-03T20:09:33.236Z,3.38
2022-12-03T20:12:04.178Z,3.20
2022-12-03T20:14:35.269Z,3.35
2022-12-03T20:17:02.686Z,3.22
2022-12-03T20:19:30.519Z,3.05
2022-12-03T20:22:02.372Z,3.21
2022-12-03T20:24:34.255Z,3.28
2022-12-03T20:27:04.312Z,3.11
2022-12-03T20:29:31.544Z,3.13
2022-12-03T20:31:58.388Z,3.22
2022-12-03T20:34:35.553Z,3.47
2022-12-03T20:37:04.647Z,3.45
2022-12-03T20:39:31.252Z,3.52
2022-12-03T20:42:00.781Z,3.47
2022-12-03T20:44:28.506Z,3.03
2022-12-03T20:46:57.621Z,2.97
2022-12-03T20:49:26.838Z,3.14
2022-12-03T20:51:57.019Z,3.01
2022-12-03T20:54:28.073Z,3.59
2022-12-03T20:56:55.073Z,3.30
2022-12-03T20:59:22.042Z,3.74
2022-12-03T21:11:21.374Z,3.01
2022-12-03T21:13:53.931Z,3.17
2022-12-03T21:16:34.143Z,3.35
2022-12-03T21:19:09.742Z,3.17
2022-12-03T21:21:40.766Z,3.46
2022-12-03T21:24:07.651Z,3.35
2022-12-03T21:26:34.973Z,3.22
2022-12-03T21:29:01.818Z,3.69
2022-12-03T21:31:28.996Z,3.79
2022-12-03T21:33:56.187Z,3.36
2022-12-03T21:39:07.830Z,3.37
2022-12-03T21:41:36.185Z,3.60
2022-12-03T21:44:04.273Z,3.42
2022-12-03T21:47:11.971Z,3.48
2022-12-03T21:49:20.569Z,3.78
2022-12-03T21:51:49.432Z,4.04
2022-12-03T21:54:16.622Z,4.41
2022-12-03T21:56:43.986Z,4.86
2022-12-03T21:59:10.872Z,4.68
2022-12-03T22:18:35.771Z,4.06
2022-12-03T22:21:02.555Z,4.19
2022-12-03T22:23:33.954Z,4.10
2022-12-03T22:26:01.046Z,4.08
2022-12-03T22:28:27.995Z,4.26
2022-12-03T22:30:59.972Z,4.42
2022-12-03T22:33:32.268Z,4.23
2022-12-03T22:35:59.211Z,4.00
2022-12-03T22:38:29.500Z,4.01
2022-12-03T22:41:05.150Z,3.61
2022-12-03T22:43:41.590Z,3.78
2022-12-03T22:46:08.517Z,4.06
2022-12-03T22:48:35.631Z,3.86
2022-12-03T22:51:02.212Z,3.64
2022-12-03T22:53:29.880Z,3.35
2022-12-03T22:55:57.553Z,3.44
2022-12-03T22:58:25.458Z,3.56
2022-12-03T23:00:53.001Z,3.38
2022-12-03T23:03:20.198Z,3.29
2022-12-03T23:05:47.379Z,3.51
2022-12-03T23:08:15.331Z,3.64
2022-12-03T23:13:36.645Z,3.74
2022-12-03T23:16:14.338Z,3.68
2022-12-03T23:18:49.931Z,3.76
2022-12-03T23:21:17.901Z,3.76
2022-12-03T23:23:47.576Z,4.58
2022-12-03T23:26:17.062Z,5.35
2022-12-03T23:28:47.213Z,4.98
2022-12-03T23:31:14.296Z,4.30
2022-12-03T23:33:51.504Z,4.10
2022-12-03T23:36:18.919Z,4.71
2022-12-03T23:38:45.629Z,4.88
2022-12-03T23:41:15.041Z,4.27
2022-12-03T23:43:41.793Z,4.15
2022-12-03T23:46:08.556Z,4.33
2022-12-03T23:48:37.306Z,4.49
2022-12-03T23:51:07.101Z,4.06
2022-12-03T23:53:37.191Z,4.02
2022-12-03T23:56:06.106Z,4.08
2022-12-03T23:58:36.713Z,3.56
